sensor_id;sensor_type;location;lat;lon;timestamp;P1;durP1;ratioP1;P2;durP2;ratioP2
11504;SDS011;5809;53.262;10.408;2023-02-15T00:01:56;114.20;;;46.30;;
11504;SDS011;5809;53.262;10.408;2023-02-15T00:04:23;138.93;;;45.80;;
11504;SDS011;5809;53.262;10.408;2023-02-15T00:07:11;129.27;;;45.37;;
11504;SDS011;5809;53.262;10.408;2023-02-15T00:09:38;193.77;;;48.97;;
11504;SDS011;5809;53.262;10.408;2023-02-15T00:12:06;159.63;;;50.13;;
11504;SDS011;5809;53.262;10.408;2023-02-15T00:14:34;107.30;;;51.13;;
11504;SDS011;5809;53.262;10.408;2023-02-15T00:17:01;238.60;;;53.17;;
11504;SDS011;5809;53.262;10.408;2023-02-15T00:19:28;212.70;;;52.80;;
11504;SDS011;5809;53.262;10.408;2023-02-15T00:21:55;220.40;;;55.20;;
11504;SDS011;5809;53.262;10.408;2023-02-15T00:24:23;410.43;;;62.13;;
11504;SDS011;5809;53.262;10.408;2023-02-15T00:26:50;309.47;;;59.77;;
11504;SDS011;5809;53.262;10.408;2023-02-15T00:29:18;438.87;;;66.30;;
11504;SDS011;5809;53.262;10.408;2023-02-15T00:31:46;177.03;;;58.20;;
11504;SDS011;5809;53.262;10.408;2023-02-15T00:34:14;155.97;;;53.07;;
11504;SDS011;5809;53.262;10.408;2023-02-15T00:36:42;235.13;;;56.27;;
11504;SDS011;5809;53.262;10.408;2023-02-15T00:39:10;127.10;;;54.40;;
11504;SDS011;5809;53.262;10.408;2023-02-15T00:41:37;331.03;;;55.80;;
11504;SDS011;5809;53.262;10.408;2023-02-15T00:44:04;347.77;;;59.17;;
11504;SDS011;5809;53.262;10.408;2023-02-15T00:46:33;312.57;;;60.00;;
11504;SDS011;5809;53.262;10.408;2023-02-15T00:49:01;427.47;;;63.93;;
11504;SDS011;5809;53.262;10.408;2023-02-15T00:51:28;636.53;;;70.73;;
11504;SDS011;5809;53.262;10.408;2023-02-15T00:53:55;487.43;;;66.57;;
11504;SDS011;5809;53.262;10.408;2023-02-15T00:56:22;453.53;;;69.00;;
11504;SDS011;5809;53.262;10.408;2023-02-15T00:58:49;517.53;;;71.93;;
11504;SDS011;5809;53.262;10.408;2023-02-15T01:01:16;653.20;;;78.70;;
11504;SDS011;5809;53.262;10.408;2023-02-15T01:03:45;582.77;;;76.03;;
11504;SDS011;5809;53.262;10.408;2023-02-15T01:06:13;566.30;;;75.30;;
11504;SDS011;5809;53.262;10.408;2023-02-15T01:08:40;427.30;;;73.47;;
11504;SDS011;5809;53.262;10.408;2023-02-15T01:11:09;667.17;;;78.43;;
11504;SDS011;5809;53.262;10.408;2023-02-15T01:13:38;494.70;;;70.87;;
11504;SDS011;5809;53.262;10.408;2023-02-15T01:16:05;564.37;;;74.57;;
11504;SDS011;5809;53.262;10.408;2023-02-15T01:18:33;265.73;;;62.83;;
11504;SDS011;5809;53.262;10.408;2023-02-15T01:21:08;338.60;;;63.73;;
11504;SDS011;5809;53.262;10.408;2023-02-15T01:23:36;186.50;;;59.33;;
11504;SDS011;5809;53.262;10.408;2023-02-15T01:26:03;329.40;;;61.57;;
11504;SDS011;5809;53.262;10.408;2023-02-15T01:28:30;155.13;;;56.87;;
11504;SDS011;5809;53.262;10.408;2023-02-15T01:30:57;181.03;;;55.17;;
11504;SDS011;5809;53.262;10.408;2023-02-15T01:33:25;167.47;;;53.23;;
11504;SDS011;5809;53.262;10.408;2023-02-15T01:35:55;210.17;;;55.30;;
11504;SDS011;5809;53.262;10.408;2023-02-15T01:38:24;150.87;;;49.27;;
11504;SDS011;5809;53.262;10.408;2023-02-15T01:40:51;189.03;;;50.20;;
11504;SDS011;5809;53.262;10.408;2023-02-15T01:43:19;161.60;;;49.20;;
11504;SDS011;5809;53.262;10.408;2023-02-15T01:45:46;182.27;;;48.97;;
11504;SDS011;5809;53.262;10.408;2023-02-15T01:48:17;220.93;;;50.13;;
11504;SDS011;5809;53.262;10.408;2023-02-15T01:50:48;256.33;;;50.77;;
11504;SDS011;5809;53.262;10.408;2023-02-15T01:53:17;461.87;;;58.40;;
11504;SDS011;5809;53.262;10.408;2023-02-15T01:55:50;387.33;;;52.43;;
11504;SDS011;5809;53.262;10.408;2023-02-15T01:58:20;498.97;;;58.37;;
11504;SDS011;5809;53.262;10.408;2023-02-15T02:00:48;541.83;;;60.87;;
11504;SDS011;5809;53.262;10.408;2023-02-15T02:03:15;578.80;;;62.20;;
11504;SDS011;5809;53.262;10.408;2023-02-15T02:05:42;568.97;;;66.03;;
11504;SDS011;5809;53.262;10.408;2023-02-15T02:08:10;271.07;;;56.13;;
11504;SDS011;5809;53.262;10.408;2023-02-15T02:10:37;313.23;;;59.23;;
11504;SDS011;5809;53.262;10.408;2023-02-15T02:13:05;301.33;;;55.20;;
11504;SDS011;5809;53.262;10.408;2023-02-15T02:15:35;480.40;;;62.00;;
11504;SDS011;5809;53.262;10.408;2023-02-15T02:18:11;549.03;;;59.63;;
11504;SDS011;5809;53.262;10.408;2023-02-15T02:20:51;447.07;;;61.10;;
11504;SDS011;5809;53.262;10.408;2023-02-15T02:26:38;537.10;;;66.53;;
11504;SDS011;5809;53.262;10.408;2023-02-15T02:29:44;189.67;;;52.87;;
11504;SDS011;5809;53.262;10.408;2023-02-15T02:35:35;580.50;;;63.97;;
11504;SDS011;5809;53.262;10.408;2023-02-15T02:38:10;311.60;;;59.30;;
11504;SDS011;5809;53.262;10.408;2023-02-15T02:40:41;458.30;;;62.40;;
11504;SDS011;5809;53.262;10.408;2023-02-15T02:43:11;486.37;;;64.50;;
11504;SDS011;5809;53.262;10.408;2023-02-15T02:45:43;579.37;;;65.43;;
11504;SDS011;5809;53.262;10.408;2023-02-15T02:48:17;619.23;;;69.80;;
11504;SDS011;5809;53.262;10.408;2023-02-15T02:50:47;516.93;;;67.23;;
11504;SDS011;5809;53.262;10.408;2023-02-15T02:53:14;510.13;;;69.23;;
11504;SDS011;5809;53.262;10.408;2023-02-15T02:55:42;666.40;;;74.23;;
11504;SDS011;5809;53.262;10.408;2023-02-15T02:58:14;545.37;;;66.60;;
11504;SDS011;5809;53.262;10.408;2023-02-15T03:00:44;600.30;;;71.70;;
11504;SDS011;5809;53.262;10.408;2023-02-15T03:03:16;548.97;;;67.63;;
11504;SDS011;5809;53.262;10.408;2023-02-15T03:05:50;535.23;;;67.93;;
11504;SDS011;5809;53.262;10.408;2023-02-15T03:08:19;643.17;;;69.80;;
11504;SDS011;5809;53.262;10.408;2023-02-15T03:10:54;492.73;;;67.97;;
11504;SDS011;5809;53.262;10.408;2023-02-15T03:13:22;700.13;;;70.87;;
11504;SDS011;5809;53.262;10.408;2023-02-15T03:15:49;649.23;;;67.63;;
11504;SDS011;5809;53.262;10.408;2023-02-15T03:18:39;600.33;;;65.63;;
11504;SDS011;5809;53.262;10.408;2023-02-15T03:21:09;394.77;;;58.63;;
11504;SDS011;5809;53.262;10.408;2023-02-15T03:23:47;455.63;;;63.20;;
11504;SDS011;5809;53.262;10.408;2023-02-15T03:26:15;534.73;;;61.30;;
11504;SDS011;5809;53.262;10.408;2023-02-15T03:28:42;169.77;;;53.20;;
11504;SDS011;5809;53.262;10.408;2023-02-15T03:31:12;558.90;;;62.07;;
11504;SDS011;5809;53.262;10.408;2023-02-15T03:33:44;545.10;;;63.33;;
11504;SDS011;5809;53.262;10.408;2023-02-15T03:36:15;384.07;;;61.30;;
11504;SDS011;5809;53.262;10.408;2023-02-15T03:38:48;622.83;;;65.83;;
11504;SDS011;5809;53.262;10.408;2023-02-15T03:41:18;628.63;;;67.53;;
11504;SDS011;5809;53.262;10.408;2023-02-15T03:43:48;729.67;;;71.27;;
11504;SDS011;5809;53.262;10.408;2023-02-15T03:46:17;629.47;;;66.87;;
11504;SDS011;5809;53.262;10.408;2023-02-15T03:48:49;693.70;;;66.77;;
11504;SDS011;5809;53.262;10.408;2023-02-15T03:51:19;651.23;;;67.37;;
11504;SDS011;5809;53.262;10.408;2023-02-15T03:54:00;366.60;;;59.30;;
11504;SDS011;5809;53.262;10.408;2023-02-15T03:56:28;620.53;;;66.67;;
11504;SDS011;5809;53.262;10.408;2023-02-15T03:58:55;490.60;;;61.10;;
11504;SDS011;5809;53.262;10.408;2023-02-15T04:01:40;584.37;;;63.57;;
11504;SDS011;5809;53.262;10.408;2023-02-15T04:04:25;658.10;;;65.53;;
11504;SDS011;5809;53.262;10.408;2023-02-15T04:06:53;446.40;;;57.27;;
11504;SDS011;5809;53.262;10.408;2023-02-15T04:09:20;323.93;;;51.17;;
11504;SDS011;5809;53.262;10.408;2023-02-15T04:12:04;441.93;;;57.03;;
11504;SDS011;5809;53.262;10.408;2023-02-15T04:14:32;459.50;;;54.63;;
11504;SDS011;5809;53.262;10.408;2023-02-15T04:17:16;385.33;;;55.03;;
11504;SDS011;5809;53.262;10.408;2023-02-15T04:19:45;399.47;;;53.27;;
11504;SDS011;5809;53.262;10.408;2023-02-15T04:22:29;303.93;;;50.87;;
11504;SDS011;5809;53.262;10.408;2023-02-15T04:25:13;413.87;;;55.67;;
11504;SDS011;5809;53.262;10.408;2023-02-15T04:27:42;242.63;;;49.77;;
11504;SDS011;5809;53.262;10.408;2023-02-15T04:30:10;200.43;;;45.90;;
11504;SDS011;5809;53.262;10.408;2023-02-15T04:32:38;451.37;;;51.47;;
11504;SDS011;5809;53.262;10.408;2023-02-15T04:35:07;460.93;;;50.57;;
11504;SDS011;5809;53.262;10.408;2023-02-15T04:37:35;481.47;;;51.97;;
11504;SDS011;5809;53.262;10.408;2023-02-15T04:40:02;383.63;;;46.50;;
11504;SDS011;5809;53.262;10.408;2023-02-15T04:42:29;262.10;;;44.10;;
11504;SDS011;5809;53.262;10.408;2023-02-15T04:44:57;197.70;;;45.63;;
11504;SDS011;5809;53.262;10.408;2023-02-15T04:47:24;192.87;;;45.20;;
11504;SDS011;5809;53.262;10.408;2023-02-15T04:49:51;432.70;;;51.10;;
11504;SDS011;5809;53.262;10.408;2023-02-15T04:52:20;128.10;;;41.63;;
11504;SDS011;5809;53.262;10.408;2023-02-15T04:54:47;484.13;;;52.50;;
11504;SDS011;5809;53.262;10.408;2023-02-15T04:57:14;339.20;;;45.87;;
11504;SDS011;5809;53.262;10.408;2023-02-15T04:59:41;157.23;;;39.80;;
11504;SDS011;5809;53.262;10.408;2023-02-15T05:02:08;474.80;;;49.73;;
11504;SDS011;5809;53.262;10.408;2023-02-15T05:04:35;464.47;;;50.03;;
11504;SDS011;5809;53.262;10.408;2023-02-15T05:07:02;412.63;;;45.50;;
11504;SDS011;5809;53.262;10.408;2023-02-15T05:09:30;128.40;;;40.13;;
11504;SDS011;5809;53.262;10.408;2023-02-15T05:11:57;114.13;;;39.67;;
11504;SDS011;5809;53.262;10.408;2023-02-15T05:14:24;192.40;;;41.23;;
11504;SDS011;5809;53.262;10.408;2023-02-15T05:16:51;128.10;;;37.43;;
11504;SDS011;5809;53.262;10.408;2023-02-15T05:19:19;302.73;;;42.70;;
11504;SDS011;5809;53.262;10.408;2023-02-15T05:21:48;175.50;;;36.57;;
11504;SDS011;5809;53.262;10.408;2023-02-15T05:24:15;111.37;;;34.70;;
11504;SDS011;5809;53.262;10.408;2023-02-15T05:27:00;385.53;;;39.77;;
11504;SDS011;5809;53.262;10.408;2023-02-15T05:29:45;296.17;;;40.30;;
11504;SDS011;5809;53.262;10.408;2023-02-15T05:32:13;283.33;;;40.03;;
11504;SDS011;5809;53.262;10.408;2023-02-15T05:34:40;79.00;;;31.17;;
11504;SDS011;5809;53.262;10.408;2023-02-15T05:37:07;134.80;;;33.00;;
11504;SDS011;5809;53.262;10.408;2023-02-15T05:39:34;166.33;;;34.20;;
11504;SDS011;5809;53.262;10.408;2023-02-15T05:42:03;281.33;;;38.53;;
11504;SDS011;5809;53.262;10.408;2023-02-15T05:44:29;218.07;;;36.93;;
11504;SDS011;5809;53.262;10.408;2023-02-15T05:46:56;426.97;;;41.07;;
11504;SDS011;5809;53.262;10.408;2023-02-15T05:49:24;439.93;;;42.57;;
11504;SDS011;5809;53.262;10.408;2023-02-15T05:51:50;305.73;;;38.53;;
11504;SDS011;5809;53.262;10.408;2023-02-15T05:54:18;269.33;;;39.63;;
11504;SDS011;5809;53.262;10.408;2023-02-15T05:56:44;511.30;;;44.77;;
11504;SDS011;5809;53.262;10.408;2023-02-15T05:59:13;557.13;;;46.50;;
11504;SDS011;5809;53.262;10.408;2023-02-15T06:01:40;283.83;;;39.77;;
11504;SDS011;5809;53.262;10.408;2023-02-15T06:04:07;350.20;;;44.67;;
11504;SDS011;5809;53.262;10.408;2023-02-15T06:06:34;182.73;;;40.00;;
11504;SDS011;5809;53.262;10.408;2023-02-15T06:09:01;351.10;;;44.43;;
11504;SDS011;5809;53.262;10.408;2023-02-15T06:11:28;189.67;;;38.77;;
11504;SDS011;5809;53.262;10.408;2023-02-15T06:13:56;169.17;;;35.07;;
11504;SDS011;5809;53.262;10.408;2023-02-15T06:16:24;131.00;;;34.77;;
11504;SDS011;5809;53.262;10.408;2023-02-15T06:18:51;106.47;;;33.33;;
11504;SDS011;5809;53.262;10.408;2023-02-15T06:21:18;166.57;;;36.23;;
11504;SDS011;5809;53.262;10.408;2023-02-15T06:23:45;216.40;;;37.73;;
11504;SDS011;5809;53.262;10.408;2023-02-15T06:26:13;210.60;;;37.70;;
11504;SDS011;5809;53.262;10.408;2023-02-15T06:28:39;120.67;;;33.40;;
11504;SDS011;5809;53.262;10.408;2023-02-15T06:31:07;219.20;;;34.10;;
11504;SDS011;5809;53.262;10.408;2023-02-15T06:33:35;216.53;;;34.60;;
11504;SDS011;5809;53.262;10.408;2023-02-15T06:36:03;125.80;;;31.13;;
11504;SDS011;5809;53.262;10.408;2023-02-15T06:38:30;139.60;;;31.53;;
11504;SDS011;5809;53.262;10.408;2023-02-15T06:40:57;91.13;;;30.40;;
11504;SDS011;5809;53.262;10.408;2023-02-15T06:43:25;268.10;;;35.63;;
11504;SDS011;5809;53.262;10.408;2023-02-15T06:45:52;159.93;;;33.10;;
11504;SDS011;5809;53.262;10.408;2023-02-15T06:48:19;127.50;;;30.70;;
11504;SDS011;5809;53.262;10.408;2023-02-15T06:50:48;316.87;;;35.03;;
11504;SDS011;5809;53.262;10.408;2023-02-15T06:53:15;315.70;;;36.07;;
11504;SDS011;5809;53.262;10.408;2023-02-15T06:55:42;403.67;;;42.43;;
11504;SDS011;5809;53.262;10.408;2023-02-15T06:58:09;389.33;;;43.17;;
11504;SDS011;5809;53.262;10.408;2023-02-15T07:00:36;183.07;;;37.50;;
11504;SDS011;5809;53.262;10.408;2023-02-15T07:03:03;143.83;;;38.03;;
11504;SDS011;5809;53.262;10.408;2023-02-15T07:05:32;363.70;;;41.87;;
11504;SDS011;5809;53.262;10.408;2023-02-15T07:08:01;149.83;;;39.17;;
11504;SDS011;5809;53.262;10.408;2023-02-15T07:10:28;309.60;;;42.23;;
11504;SDS011;5809;53.262;10.408;2023-02-15T07:12:55;408.27;;;44.03;;
11504;SDS011;5809;53.262;10.408;2023-02-15T07:15:21;381.90;;;44.23;;
11504;SDS011;5809;53.262;10.408;2023-02-15T07:17:48;168.80;;;36.03;;
11504;SDS011;5809;53.262;10.408;2023-02-15T07:20:16;356.90;;;42.77;;
11504;SDS011;5809;53.262;10.408;2023-02-15T07:22:44;398.90;;;44.43;;
11504;SDS011;5809;53.262;10.408;2023-02-15T07:25:13;452.50;;;45.63;;
11504;SDS011;5809;53.262;10.408;2023-02-15T07:27:41;134.33;;;38.07;;
11504;SDS011;5809;53.262;10.408;2023-02-15T07:30:10;367.47;;;44.37;;
11504;SDS011;5809;53.262;10.408;2023-02-15T07:32:39;221.53;;;41.33;;
11504;SDS011;5809;53.262;10.408;2023-02-15T07:35:26;159.07;;;38.27;;
11504;SDS011;5809;53.262;10.408;2023-02-15T07:37:53;132.80;;;36.30;;
11504;SDS011;5809;53.262;10.408;2023-02-15T07:40:22;133.53;;;36.63;;
11504;SDS011;5809;53.262;10.408;2023-02-15T07:42:49;74.13;;;32.90;;
11504;SDS011;5809;53.262;10.408;2023-02-15T07:45:19;84.10;;;32.43;;
11504;SDS011;5809;53.262;10.408;2023-02-15T07:47:46;100.07;;;29.43;;
11504;SDS011;5809;53.262;10.408;2023-02-15T07:50:14;86.90;;;27.93;;
11504;SDS011;5809;53.262;10.408;2023-02-15T07:52:41;97.07;;;29.10;;
11504;SDS011;5809;53.262;10.408;2023-02-15T07:55:08;65.10;;;26.90;;
11504;SDS011;5809;53.262;10.408;2023-02-15T07:57:39;97.70;;;27.03;;
11504;SDS011;5809;53.262;10.408;2023-02-15T08:00:09;113.47;;;27.97;;
11504;SDS011;5809;53.262;10.408;2023-02-15T08:02:37;105.87;;;25.43;;
11504;SDS011;5809;53.262;10.408;2023-02-15T08:05:04;178.13;;;28.43;;
11504;SDS011;5809;53.262;10.408;2023-02-15T08:07:31;112.00;;;26.30;;
11504;SDS011;5809;53.262;10.408;2023-02-15T08:09:59;71.37;;;26.50;;
11504;SDS011;5809;53.262;10.408;2023-02-15T08:12:25;298.40;;;32.30;;
11504;SDS011;5809;53.262;10.408;2023-02-15T08:14:54;253.27;;;32.53;;
11504;SDS011;5809;53.262;10.408;2023-02-15T08:17:21;141.83;;;30.83;;
11504;SDS011;5809;53.262;10.408;2023-02-15T08:19:48;217.73;;;33.03;;
11504;SDS011;5809;53.262;10.408;2023-02-15T08:22:15;163.47;;;31.50;;
11504;SDS011;5809;53.262;10.408;2023-02-15T08:24:42;173.53;;;31.37;;
11504;SDS011;5809;53.262;10.408;2023-02-15T08:27:10;76.80;;;27.53;;
11504;SDS011;5809;53.262;10.408;2023-02-15T08:29:37;47.27;;;24.67;;
11504;SDS011;5809;53.262;10.408;2023-02-15T08:32:09;48.83;;;25.00;;
11504;SDS011;5809;53.262;10.408;2023-02-15T08:34:38;51.93;;;23.33;;
11504;SDS011;5809;53.262;10.408;2023-02-15T08:37:06;57.47;;;23.23;;
11504;SDS011;5809;53.262;10.408;2023-02-15T08:39:33;91.30;;;23.23;;
11504;SDS011;5809;53.262;10.408;2023-02-15T08:42:00;36.43;;;22.03;;
11504;SDS011;5809;53.262;10.408;2023-02-15T08:44:27;105.70;;;22.47;;
11504;SDS011;5809;53.262;10.408;2023-02-15T08:46:54;92.07;;;22.57;;
11504;SDS011;5809;53.262;10.408;2023-02-15T08:49:24;34.40;;;20.57;;
11504;SDS011;5809;53.262;10.408;2023-02-15T08:51:51;30.13;;;20.67;;
11504;SDS011;5809;53.262;10.408;2023-02-15T08:54:19;28.83;;;20.53;;
11504;SDS011;5809;53.262;10.408;2023-02-15T08:56:47;32.20;;;19.40;;
11504;SDS011;5809;53.262;10.408;2023-02-15T08:59:15;52.87;;;20.70;;
11504;SDS011;5809;53.262;10.408;2023-02-15T09:01:42;43.73;;;21.40;;
11504;SDS011;5809;53.262;10.408;2023-02-15T09:04:09;41.47;;;21.67;;
11504;SDS011;5809;53.262;10.408;2023-02-15T09:06:39;31.67;;;20.03;;
11504;SDS011;5809;53.262;10.408;2023-02-15T09:09:08;51.00;;;21.10;;
11504;SDS011;5809;53.262;10.408;2023-02-15T09:11:36;54.27;;;22.67;;
11504;SDS011;5809;53.262;10.408;2023-02-15T09:14:05;46.93;;;22.50;;
11504;SDS011;5809;53.262;10.408;2023-02-15T09:16:34;45.83;;;22.70;;
11504;SDS011;5809;53.262;10.408;2023-02-15T09:19:03;30.57;;;21.70;;
11504;SDS011;5809;53.262;10.408;2023-02-15T09:21:31;35.00;;;23.93;;
11504;SDS011;5809;53.262;10.408;2023-02-15T09:24:00;51.93;;;36.07;;
11504;SDS011;5809;53.262;10.408;2023-02-15T09:26:30;30.43;;;20.93;;
11504;SDS011;5809;53.262;10.408;2023-02-15T09:28:58;28.57;;;21.30;;
11504;SDS011;5809;53.262;10.408;2023-02-15T09:31:26;33.10;;;21.33;;
11504;SDS011;5809;53.262;10.408;2023-02-15T09:33:54;32.30;;;21.97;;
11504;SDS011;5809;53.262;10.408;2023-02-15T09:36:22;30.17;;;21.40;;
11504;SDS011;5809;53.262;10.408;2023-02-15T09:38:52;28.27;;;20.50;;
11504;SDS011;5809;53.262;10.408;2023-02-15T09:44:09;27.00;;;18.70;;
11504;SDS011;5809;53.262;10.408;2023-02-15T09:46:45;23.70;;;18.33;;
11504;SDS011;5809;53.262;10.408;2023-02-15T09:49:25;24.00;;;17.80;;
11504;SDS011;5809;53.262;10.408;2023-02-15T09:52:12;25.63;;;18.20;;
11504;SDS011;5809;53.262;10.408;2023-02-15T09:54:45;23.77;;;18.00;;
11504;SDS011;5809;53.262;10.408;2023-02-15T09:57:18;24.67;;;18.23;;
11504;SDS011;5809;53.262;10.408;2023-02-15T09:59:50;25.77;;;19.73;;
11504;SDS011;5809;53.262;10.408;2023-02-15T10:02:28;35.93;;;19.93;;
11504;SDS011;5809;53.262;10.408;2023-02-15T10:05:04;25.67;;;19.07;;
11504;SDS011;5809;53.262;10.408;2023-02-15T10:07:40;28.43;;;20.47;;
11504;SDS011;5809;53.262;10.408;2023-02-15T10:10:14;29.20;;;19.73;;
11504;SDS011;5809;53.262;10.408;2023-02-15T10:15:51;27.17;;;21.03;;
11504;SDS011;5809;53.262;10.408;2023-02-15T10:18:38;31.23;;;20.90;;
11504;SDS011;5809;53.262;10.408;2023-02-15T10:21:11;26.90;;;20.23;;
11504;SDS011;5809;53.262;10.408;2023-02-15T10:23:47;26.13;;;19.80;;
11504;SDS011;5809;53.262;10.408;2023-02-15T10:26:17;27.63;;;19.70;;
11504;SDS011;5809;53.262;10.408;2023-02-15T10:28:46;25.70;;;19.60;;
11504;SDS011;5809;53.262;10.408;2023-02-15T10:31:23;24.93;;;19.40;;
11504;SDS011;5809;53.262;10.408;2023-02-15T10:33:55;23.30;;;18.23;;
11504;SDS011;5809;53.262;10.408;2023-02-15T10:36:28;22.03;;;17.37;;
11504;SDS011;5809;53.262;10.408;2023-02-15T10:39:00;20.67;;;17.00;;
11504;SDS011;5809;53.262;10.408;2023-02-15T10:41:32;21.47;;;17.27;;
11504;SDS011;5809;53.262;10.408;2023-02-15T10:44:08;20.63;;;16.80;;
11504;SDS011;5809;53.262;10.408;2023-02-15T10:46:55;21.10;;;16.87;;
11504;SDS011;5809;53.262;10.408;2023-02-15T10:49:28;19.67;;;16.13;;
11504;SDS011;5809;53.262;10.408;2023-02-15T10:52:18;19.53;;;16.63;;
11504;SDS011;5809;53.262;10.408;2023-02-15T10:54:49;19.97;;;15.07;;
11504;SDS011;5809;53.262;10.408;2023-02-15T10:57:24;19.83;;;16.67;;
11504;SDS011;5809;53.262;10.408;2023-02-15T11:00:01;18.77;;;16.10;;
11504;SDS011;5809;53.262;10.408;2023-02-15T11:02:35;19.87;;;15.80;;
11504;SDS011;5809;53.262;10.408;2023-02-15T11:05:08;18.57;;;15.83;;
11504;SDS011;5809;53.262;10.408;2023-02-15T11:07:51;17.20;;;13.80;;
11504;SDS011;5809;53.262;10.408;2023-02-15T11:10:24;15.70;;;13.87;;
11504;SDS011;5809;53.262;10.408;2023-02-15T11:12:56;16.92;;;14.60;;
11504;SDS011;5809;53.262;10.408;2023-02-15T11:15:25;14.93;;;13.32;;
11504;SDS011;5809;53.262;10.408;2023-02-15T11:17:59;15.43;;;13.63;;
11504;SDS011;5809;53.262;10.408;2023-02-15T11:20:29;16.65;;;14.10;;
11504;SDS011;5809;53.262;10.408;2023-02-15T11:22:59;15.90;;;14.30;;
11504;SDS011;5809;53.262;10.408;2023-02-15T11:25:29;16.83;;;15.13;;
11504;SDS011;5809;53.262;10.408;2023-02-15T11:27:58;15.63;;;14.02;;
11504;SDS011;5809;53.262;10.408;2023-02-15T11:30:28;16.52;;;14.90;;
11504;SDS011;5809;53.262;10.408;2023-02-15T11:33:03;16.90;;;15.20;;
11504;SDS011;5809;53.262;10.408;2023-02-15T11:35:33;20.67;;;18.67;;
11504;SDS011;5809;53.262;10.408;2023-02-15T11:38:10;17.77;;;15.35;;
11504;SDS011;5809;53.262;10.408;2023-02-15T11:40:44;19.88;;;17.88;;
11504;SDS011;5809;53.262;10.408;2023-02-15T11:43:15;25.33;;;21.50;;
11504;SDS011;5809;53.262;10.408;2023-02-15T11:45:47;16.77;;;15.00;;
11504;SDS011;5809;53.262;10.408;2023-02-15T11:48:16;16.75;;;15.05;;
11504;SDS011;5809;53.262;10.408;2023-02-15T11:50:43;14.90;;;13.32;;
11504;SDS011;5809;53.262;10.408;2023-02-15T11:53:11;16.85;;;13.77;;
11504;SDS011;5809;53.262;10.408;2023-02-15T11:55:40;14.30;;;12.88;;
11504;SDS011;5809;53.262;10.408;2023-02-15T11:58:11;20.33;;;18.23;;
11504;SDS011;5809;53.262;10.408;2023-02-15T12:00:48;14.77;;;13.00;;
11504;SDS011;5809;53.262;10.408;2023-02-15T12:03:21;15.43;;;13.82;;
11504;SDS011;5809;53.262;10.408;2023-02-15T12:05:55;13.77;;;12.40;;
11504;SDS011;5809;53.262;10.408;2023-02-15T12:08:24;14.93;;;13.43;;
11504;SDS011;5809;53.262;10.408;2023-02-15T12:10:57;14.82;;;12.90;;
11504;SDS011;5809;53.262;10.408;2023-02-15T12:13:26;15.35;;;13.77;;
11504;SDS011;5809;53.262;10.408;2023-02-15T12:15:54;15.45;;;13.95;;
11504;SDS011;5809;53.262;10.408;2023-02-15T12:18:33;20.65;;;17.40;;
11504;SDS011;5809;53.262;10.408;2023-02-15T12:21:03;15.48;;;13.88;;
11504;SDS011;5809;53.262;10.408;2023-02-15T12:23:33;16.10;;;14.40;;
11504;SDS011;5809;53.262;10.408;2023-02-15T12:26:01;18.23;;;16.00;;
11504;SDS011;5809;53.262;10.408;2023-02-15T12:28:30;17.98;;;16.08;;
11504;SDS011;5809;53.262;10.408;2023-02-15T12:31:00;21.70;;;19.42;;
11504;SDS011;5809;53.262;10.408;2023-02-15T12:33:30;16.80;;;15.20;;
11504;SDS011;5809;53.262;10.408;2023-02-15T12:36:01;21.50;;;18.63;;
11504;SDS011;5809;53.262;10.408;2023-02-15T12:38:35;27.88;;;23.58;;
11504;SDS011;5809;53.262;10.408;2023-02-15T12:41:03;16.52;;;14.93;;
11504;SDS011;5809;53.262;10.408;2023-02-15T12:43:47;17.88;;;15.00;;
11504;SDS011;5809;53.262;10.408;2023-02-15T12:46:28;22.85;;;20.48;;
11504;SDS011;5809;53.262;10.408;2023-02-15T12:49:06;14.93;;;13.52;;
11504;SDS011;5809;53.262;10.408;2023-02-15T12:51:44;15.65;;;14.15;;
11504;SDS011;5809;53.262;10.408;2023-02-15T12:54:29;18.73;;;16.55;;
11504;SDS011;5809;53.262;10.408;2023-02-15T12:57:13;16.75;;;15.15;;
11504;SDS011;5809;53.262;10.408;2023-02-15T12:59:52;18.48;;;16.60;;
11504;SDS011;5809;53.262;10.408;2023-02-15T13:02:22;16.05;;;14.43;;
11504;SDS011;5809;53.262;10.408;2023-02-15T13:04:53;13.88;;;12.50;;
11504;SDS011;5809;53.262;10.408;2023-02-15T13:07:21;14.60;;;13.20;;
11504;SDS011;5809;53.262;10.408;2023-02-15T13:09:49;14.77;;;13.38;;
11504;SDS011;5809;53.262;10.408;2023-02-15T13:12:18;13.07;;;11.82;;
11504;SDS011;5809;53.262;10.408;2023-02-15T13:14:48;16.52;;;13.27;;
11504;SDS011;5809;53.262;10.408;2023-02-15T13:17:18;14.77;;;13.27;;
11504;SDS011;5809;53.262;10.408;2023-02-15T13:19:53;18.02;;;14.40;;
11504;SDS011;5809;53.262;10.408;2023-02-15T13:22:21;16.33;;;14.73;;
11504;SDS011;5809;53.262;10.408;2023-02-15T13:24:54;14.20;;;12.75;;
11504;SDS011;5809;53.262;10.408;2023-02-15T13:27:24;14.40;;;12.90;;
11504;SDS011;5809;53.262;10.408;2023-02-15T13:29:58;15.95;;;14.35;;
11504;SDS011;5809;53.262;10.408;2023-02-15T13:32:30;18.92;;;13.43;;
11504;SDS011;5809;53.262;10.408;2023-02-15T13:35:03;14.80;;;13.30;;
11504;SDS011;5809;53.262;10.408;2023-02-15T13:37:48;15.05;;;13.63;;
11504;SDS011;5809;53.262;10.408;2023-02-15T13:40:29;14.15;;;12.73;;
11504;SDS011;5809;53.262;10.408;2023-02-15T13:43:02;14.98;;;13.20;;
11504;SDS011;5809;53.262;10.408;2023-02-15T13:45:38;15.70;;;13.82;;
11504;SDS011;5809;53.262;10.408;2023-02-15T13:48:17;14.13;;;12.70;;
11504;SDS011;5809;53.262;10.408;2023-02-15T13:50:59;14.40;;;12.88;;
11504;SDS011;5809;53.262;10.408;2023-02-15T13:53:45;14.50;;;13.00;;
11504;SDS011;5809;53.262;10.408;2023-02-15T13:56:27;14.07;;;12.65;;
11504;SDS011;5809;53.262;10.408;2023-02-15T13:59:11;15.43;;;13.82;;
11504;SDS011;5809;53.262;10.408;2023-02-15T14:01:49;15.23;;;13.13;;
11504;SDS011;5809;53.262;10.408;2023-02-15T14:07:25;14.93;;;13.30;;
11504;SDS011;5809;53.262;10.408;2023-02-15T14:10:11;16.80;;;14.23;;
11504;SDS011;5809;53.262;10.408;2023-02-15T14:13:03;14.40;;;13.05;;
11504;SDS011;5809;53.262;10.408;2023-02-15T14:15:46;14.55;;;13.15;;
11504;SDS011;5809;53.262;10.408;2023-02-15T14:18:19;16.40;;;14.68;;
11504;SDS011;5809;53.262;10.408;2023-02-15T14:20:56;15.30;;;13.45;;
11504;SDS011;5809;53.262;10.408;2023-02-15T14:23:36;16.40;;;14.60;;
11504;SDS011;5809;53.262;10.408;2023-02-15T14:26:11;15.60;;;14.02;;
11504;SDS011;5809;53.262;10.408;2023-02-15T14:28:45;15.70;;;14.10;;
11504;SDS011;5809;53.262;10.408;2023-02-15T14:31:23;16.10;;;14.40;;
11504;SDS011;5809;53.262;10.408;2023-02-15T14:33:57;15.77;;;14.07;;
11504;SDS011;5809;53.262;10.408;2023-02-15T14:36:24;15.98;;;14.38;;
11504;SDS011;5809;53.262;10.408;2023-02-15T14:38:59;17.15;;;14.07;;
11504;SDS011;5809;53.262;10.408;2023-02-15T14:41:53;16.75;;;15.05;;
11504;SDS011;5809;53.262;10.408;2023-02-15T14:44:22;16.38;;;14.68;;
11504;SDS011;5809;53.262;10.408;2023-02-15T14:46:55;17.52;;;15.23;;
11504;SDS011;5809;53.262;10.408;2023-02-15T14:49:30;17.25;;;15.35;;
11504;SDS011;5809;53.262;10.408;2023-02-15T14:52:00;17.58;;;15.50;;